createdAt,value
2022-07-29T00:00:15.557Z,101543.50
2022-07-29T00:02:42.644Z,101538.63
2022-07-29T00:05:11.052Z,101534.81
2022-07-29T00:07:38.036Z,101545.88
2022-07-29T00:10:05.690Z,101544.53
2022-07-29T00:12:33.001Z,101557.25
2022-07-29T00:14:59.866Z,101537.16
2022-07-29T00:17:27.089Z,101546.91
2022-07-29T00:19:54.345Z,101552.56
2022-07-29T00:22:21.730Z,101541.16
2022-07-29T00:24:50.486Z,101545.47
2022-07-29T00:27:18.647Z,101543.03
2022-07-29T00:29:46.014Z,101530.28
2022-07-29T00:32:12.926Z,101531.63
2022-07-29T00:34:58.961Z,101540.00
2022-07-29T00:37:26.329Z,101534.81
2022-07-29T00:39:53.397Z,101536.72
2022-07-29T00:42:20.812Z,101533.16
2022-07-29T00:44:48.161Z,101541.53
2022-07-29T00:47:15.066Z,101533.94
2022-07-29T00:49:42.853Z,101528.78
2022-07-29T00:52:12.170Z,101534.72
2022-07-29T00:54:44.252Z,101517.63
2022-07-29T00:57:13.427Z,101532.25
2022-07-29T00:59:42.342Z,101524.69
2022-07-29T01:02:09.486Z,101516.56
2022-07-29T01:04:36.725Z,101515.75
2022-07-29T01:07:05.380Z,101524.13
2022-07-29T01:09:45.745Z,101516.25
2022-07-29T01:12:22.951Z,101504.28
2022-07-29T01:14:51.480Z,101509.41
2022-07-29T01:17:39.026Z,101510.22
2022-07-29T01:20:33.080Z,101512.38
2022-07-29T01:23:33.329Z,101502.91
2022-07-29T01:26:24.479Z,101501.78
2022-07-29T01:29:08.330Z,101496.91
2022-07-29T01:35:07.632Z,101483.09
2022-07-29T01:38:02.710Z,101480.34
2022-07-29T01:40:49.416Z,101480.59
2022-07-29T01:43:25.102Z,101465.72
2022-07-29T01:45:58.935Z,101465.16
2022-07-29T01:48:35.561Z,101450.28
2022-07-29T01:51:09.477Z,101447.31
2022-07-29T01:53:44.702Z,101440.28
2022-07-29T01:56:14.828Z,101442.44
2022-07-29T01:58:43.804Z,101443.50
2022-07-29T02:01:14.045Z,101440.81
2022-07-29T02:03:45.057Z,101432.41
2022-07-29T02:06:16.724Z,101426.09
2022-07-29T02:08:45.621Z,101430.78
2022-07-29T02:11:12.687Z,101432.41
2022-07-29T02:13:42.195Z,101429.44
2022-07-29T02:16:10.936Z,101437.53
2022-07-29T02:18:40.801Z,101431.59
2022-07-29T02:21:14.909Z,101430.97
2022-07-29T02:23:51.331Z,101428.81
2022-07-29T02:26:21.559Z,101441.03
2022-07-29T02:28:51.474Z,101436.47
2022-07-29T02:31:22.577Z,101436.72
2022-07-29T02:33:54.175Z,101438.63
2022-07-29T02:36:24.430Z,101444.03
2022-07-29T02:38:52.596Z,101445.13
2022-07-29T02:41:50.727Z,101457.31
2022-07-29T02:44:23.318Z,101439.94
2022-07-29T02:47:20.430Z,101456.25
2022-07-29T02:50:22.313Z,101458.38
2022-07-29T02:53:01.639Z,101454.63
2022-07-29T02:56:00.427Z,101446.75
2022-07-29T02:58:33.974Z,101447.56
2022-07-29T03:01:08.283Z,101442.44
2022-07-29T03:03:38.722Z,101445.16
2022-07-29T03:06:08.321Z,101433.72
2022-07-29T03:08:36.102Z,101448.44
2022-07-29T03:11:04.855Z,101442.50
2022-07-29T03:13:32.108Z,101456.56
2022-07-29T03:16:00.436Z,101437.63
2022-07-29T03:18:27.887Z,101440.91
2022-07-29T03:20:55.542Z,101451.75
2022-07-29T03:23:24.829Z,101442.84
2022-07-29T03:25:52.537Z,101442.31
2022-07-29T03:28:20.390Z,101440.97
2022-07-29T03:30:49.676Z,101429.34
2022-07-29T03:33:17.417Z,101430.16
2022-07-29T03:35:44.306Z,101442.09
2022-07-29T03:38:11.592Z,101433.44
2022-07-29T03:40:54.682Z,101440.50
2022-07-29T03:43:23.089Z,101437.78
2022-07-29T03:45:55.231Z,101428.31
2022-07-29T03:48:24.750Z,101426.47
2022-07-29T03:50:52.198Z,101419.44
2022-07-29T03:53:19.453Z,101423.78
2022-07-29T03:55:53.199Z,101413.16
2022-07-29T03:58:21.054Z,101422.19
2022-07-29T04:00:48.735Z,101417.84
2022-07-29T04:03:17.162Z,101413.78
2022-07-29T04:05:44.112Z,101424.09
2022-07-29T04:08:10.985Z,101429.81
2022-07-29T04:10:39.581Z,101430.63
2022-07-29T04:13:06.638Z,101424.16
2022-07-29T04:15:33.771Z,101427.16
2022-07-29T04:18:00.988Z,101425.81
2022-07-29T04:20:28.307Z,101438.28
2022-07-29T04:22:55.510Z,101428.28
2022-07-29T04:25:22.678Z,101436.69
2022-07-29T04:28:01.263Z,101426.69
2022-07-29T04:30:28.936Z,101431.63
2022-07-29T04:32:55.916Z,101433.84
2022-07-29T04:35:23.234Z,101423.53
2022-07-29T04:37:50.145Z,101433.84
2022-07-29T04:40:17.324Z,101436.03
2022-07-29T04:42:46.725Z,101436.59
2022-07-29T04:45:15.251Z,101422.81
2022-07-29T04:47:43.812Z,101430.94
2022-07-29T04:50:11.268Z,101427.75
2022-07-29T04:52:38.483Z,101436.69
2022-07-29T04:55:06.523Z,101429.94
2022-07-29T04:57:34.029Z,101434.53
2022-07-29T05:00:01.334Z,101422.91
2022-07-29T05:02:28.386Z,101438.09
2022-07-29T05:05:01.350Z,101438.09
2022-07-29T05:07:28.364Z,101437.56
2022-07-29T05:09:57.890Z,101432.97
2022-07-29T05:12:26.124Z,101436.78
2022-07-29T05:14:54.444Z,101431.66
2022-07-29T05:20:12.462Z,101431.66
2022-07-29T05:22:39.437Z,101424.88
2022-07-29T05:25:09.148Z,101425.94
2022-07-29T05:27:38.024Z,101431.13
2022-07-29T05:30:06.019Z,101427.31
2022-07-29T05:32:33.045Z,101411.06
2022-07-29T05:35:00.113Z,101427.84
2022-07-29T05:37:26.984Z,101421.59
2022-07-29T05:39:59.203Z,101415.34
2022-07-29T05:45:18.498Z,101407.75
2022-07-29T05:47:46.670Z,101419.38
2022-07-29T05:50:14.333Z,101403.63
2022-07-29T05:52:41.252Z,101409.03
2022-07-29T05:55:09.242Z,101417.41
2022-07-29T05:57:36.280Z,101418.22
2022-07-29T06:00:04.559Z,101412.75
2022-07-29T06:02:39.397Z,101412.72
2022-07-29T06:05:07.023Z,101416.44
2022-07-29T06:07:50.138Z,101425.09
2022-07-29T06:10:20.239Z,101418.22
2022-07-29T06:12:51.173Z,101420.00
2022-07-29T06:15:18.673Z,101430.53
2022-07-29T06:17:58.964Z,101417.94
2022-07-29T06:20:31.113Z,101412.66
2022-07-29T06:22:59.398Z,101420.16
2022-07-29T06:25:27.327Z,101417.00
2022-07-29T06:27:54.885Z,101415.19
2022-07-29T06:30:21.870Z,101407.91
2022-07-29T06:32:49.421Z,101402.84
2022-07-29T06:38:06.370Z,101389.88
2022-07-29T06:41:01.471Z,101395.31
2022-07-29T06:43:52.065Z,101395.91
2022-07-29T06:46:50.138Z,101390.81
2022-07-29T06:49:17.497Z,101408.00
2022-07-29T06:51:44.530Z,101397.44
2022-07-29T06:54:11.712Z,101404.03
2022-07-29T06:56:40.401Z,101411.44
2022-07-29T06:59:10.123Z,101403.88
2022-07-29T07:01:42.447Z,101401.56
2022-07-29T07:04:10.727Z,101406.44
2022-07-29T07:06:38.721Z,101407.91
2022-07-29T07:09:06.061Z,101406.28
2022-07-29T07:11:33.045Z,101402.03
2022-07-29T07:14:03.538Z,101401.94
2022-07-29T07:16:32.856Z,101409.56
2022-07-29T07:19:04.485Z,101412.38
2022-07-29T07:21:33.587Z,101410.16
2022-07-29T07:24:00.870Z,101410.72
2022-07-29T07:26:33.644Z,101404.56
2022-07-29T07:29:03.397Z,101390.00
2022-07-29T07:31:30.410Z,101393.38
2022-07-29T07:33:58.121Z,101403.63
2022-07-29T07:36:25.926Z,101402.69
2022-07-29T07:38:55.025Z,101408.72
2022-07-29T07:41:23.683Z,101406.69
2022-07-29T07:43:50.803Z,101417.41
2022-07-29T07:46:18.961Z,101399.56
2022-07-29T07:48:50.937Z,101396.75
2022-07-29T07:51:17.890Z,101389.59
2022-07-29T07:53:45.776Z,101395.97
2022-07-29T07:56:13.100Z,101397.75
2022-07-29T07:58:40.522Z,101391.22
2022-07-29T08:01:09.658Z,101382.09
2022-07-29T08:03:37.400Z,101381.22
2022-07-29T08:06:05.418Z,101379.19
2022-07-29T08:08:32.758Z,101370.97
2022-07-29T08:11:00.589Z,101370.19
2022-07-29T08:13:31.294Z,101374.81
2022-07-29T08:16:01.165Z,101369.88
2022-07-29T08:18:36.127Z,101364.88
2022-07-29T08:21:03.312Z,101369.81
2022-07-29T08:23:46.027Z,101363.59
2022-07-29T08:26:16.372Z,101365.97
2022-07-29T08:28:50.519Z,101363.66
2022-07-29T08:31:18.826Z,101362.97
2022-07-29T08:33:46.212Z,101356.31
2022-07-29T08:36:14.045Z,101356.97
2022-07-29T08:38:41.353Z,101353.97
2022-07-29T08:41:08.345Z,101341.81
2022-07-29T08:43:40.227Z,101331.59
2022-07-29T08:46:09.045Z,101338.44
2022-07-29T08:48:37.453Z,101341.34
2022-07-29T08:51:06.395Z,101339.47
2022-07-29T08:53:34.112Z,101333.09
2022-07-29T08:56:01.937Z,101326.44
2022-07-29T08:58:36.748Z,101323.16
2022-07-29T09:01:07.719Z,101324.31
2022-07-29T09:03:41.809Z,101323.97
2022-07-29T09:06:09.217Z,101324.81
2022-07-29T09:08:36.347Z,101318.47
2022-07-29T09:11:05.635Z,101324.88
2022-07-29T09:13:33.314Z,101322.19
2022-07-29T09:16:01.767Z,101320.69
2022-07-29T09:18:43.085Z,101321.94
2022-07-29T09:21:34.494Z,101317.00
2022-07-29T09:24:13.615Z,101318.41
2022-07-29T09:26:43.928Z,101328.69
2022-07-29T09:29:19.809Z,101327.28
2022-07-29T09:31:50.022Z,101314.91
2022-07-29T09:34:24.548Z,101320.50
2022-07-29T09:36:54.454Z,101306.19
2022-07-29T09:39:47.278Z,101297.59
2022-07-29T09:42:16.851Z,101305.13
2022-07-29T09:44:50.131Z,101298.72
2022-07-29T09:47:19.692Z,101301.91
2022-07-29T09:50:01.918Z,101286.03
2022-07-29T09:52:30.981Z,101297.09
2022-07-29T09:55:13.806Z,101293.44
2022-07-29T09:57:46.321Z,101293.72
2022-07-29T10:03:10.843Z,101293.38
2022-07-29T10:05:41.944Z,101297.34
2022-07-29T10:08:09.877Z,101291.47
2022-07-29T10:10:43.630Z,101284.97
2022-07-29T10:13:15.939Z,101284.38
2022-07-29T10:15:47.555Z,101282.84
2022-07-29T10:18:18.372Z,101279.03
2022-07-29T10:20:46.246Z,101274.72
2022-07-29T10:23:13.603Z,101274.84
2022-07-29T10:25:45.951Z,101268.25
2022-07-29T10:28:16.419Z,101270.81
2022-07-29T10:30:45.594Z,101276.63
2022-07-29T10:33:54.852Z,101266.38
2022-07-29T10:36:50.759Z,101260.84
2022-07-29T10:40:31.070Z,101271.31
2022-07-29T10:43:10.033Z,101264.19
2022-07-29T10:45:43.030Z,101251.00
2022-07-29T10:48:10.622Z,101245.69
2022-07-29T10:51:00.021Z,101251.91
2022-07-29T10:53:52.308Z,101255.06
2022-07-29T10:56:36.614Z,101235.78
2022-07-29T10:59:25.069Z,101243.75
2022-07-29T11:01:56.710Z,101242.03
2022-07-29T11:04:47.054Z,101250.19
2022-07-29T11:07:15.448Z,101232.94
2022-07-29T11:09:46.551Z,101224.97
2022-07-29T11:12:39.533Z,101211.47
2022-07-29T11:15:09.680Z,101226.59
2022-07-29T11:17:55.121Z,101223.19
2022-07-29T11:20:49.698Z,101231.41
2022-07-29T11:23:33.429Z,101221.34
2022-07-29T11:29:25.260Z,101220.59
2022-07-29T11:32:09.757Z,101230.59
2022-07-29T11:34:44.711Z,101235.63
2022-07-29T11:37:14.507Z,101241.25
2022-07-29T11:39:55.642Z,101226.72
2022-07-29T11:42:32.290Z,101222.91
2022-07-29T11:45:43.164Z,101224.97
2022-07-29T11:48:29.013Z,101204.88
2022-07-29T11:51:00.480Z,101203.28
2022-07-29T11:53:28.789Z,101204.19
2022-07-29T11:55:58.112Z,101192.69
2022-07-29T11:58:26.246Z,101201.41
2022-07-29T12:03:43.604Z,101189.72
2022-07-29T12:06:15.621Z,101187.94
2022-07-29T12:08:47.348Z,101184.78
2022-07-29T12:11:22.874Z,101184.06
2022-07-29T12:13:55.282Z,101169.63
2022-07-29T12:16:26.033Z,101182.94
2022-07-29T12:19:02.225Z,101183.72
2022-07-29T12:21:31.178Z,101181.91
2022-07-29T12:24:08.768Z,101171.69
2022-07-29T12:26:37.050Z,101172.81
2022-07-29T12:29:04.211Z,101155.13
2022-07-29T12:31:43.589Z,101170.38
2022-07-29T12:34:14.688Z,101176.31
2022-07-29T12:36:45.209Z,101178.69
2022-07-29T12:39:13.394Z,101174.56
2022-07-29T12:41:40.923Z,101170.75
2022-07-29T12:44:12.082Z,101166.34
2022-07-29T12:46:39.611Z,101149.91
2022-07-29T12:49:06.986Z,101159.19
2022-07-29T12:51:39.391Z,101158.69
2022-07-29T12:54:09.416Z,101161.19
2022-07-29T12:56:45.013Z,101157.03
2022-07-29T13:02:25.616Z,101163.19
2022-07-29T13:05:01.119Z,101151.19
2022-07-29T13:07:54.214Z,101160.91
2022-07-29T13:10:24.210Z,101149.84
2022-07-29T13:13:11.264Z,101146.66
2022-07-29T13:15:40.881Z,101144.03
2022-07-29T13:18:37.305Z,101147.00
2022-07-29T13:21:16.095Z,101142.41
2022-07-29T13:23:43.689Z,101145.53
2022-07-29T13:26:12.688Z,101140.38
2022-07-29T13:28:39.980Z,101147.88
2022-07-29T13:31:07.020Z,101142.44
2022-07-29T13:33:34.106Z,101138.56
2022-07-29T13:36:01.437Z,101138.53
2022-07-29T13:38:31.326Z,101135.22
2022-07-29T13:40:59.563Z,101133.72
2022-07-29T13:43:26.585Z,101130.31
2022-07-29T13:45:53.774Z,101118.84
2022-07-29T13:48:21.529Z,101123.94
2022-07-29T13:50:49.888Z,101127.28
2022-07-29T13:53:17.516Z,101121.16
2022-07-29T13:56:10.287Z,101113.22
2022-07-29T13:58:37.410Z,101108.03
2022-07-29T14:01:05.000Z,101111.97
2022-07-29T14:03:32.532Z,101100.84
2022-07-29T14:06:01.426Z,101100.38
2022-07-29T14:11:19.745Z,101101.16
2022-07-29T14:13:46.889Z,101091.25
2022-07-29T14:16:43.045Z,101090.72
2022-07-29T14:19:14.968Z,101086.53
2022-07-29T14:21:41.972Z,101083.31
2022-07-29T14:24:17.036Z,101085.41
2022-07-29T14:26:46.271Z,101089.00
2022-07-29T14:29:13.732Z,101090.53
2022-07-29T14:31:42.010Z,101088.66
2022-07-29T14:34:09.473Z,101088.03
2022-07-29T14:36:36.588Z,101079.88
2022-07-29T14:39:03.885Z,101082.84
2022-07-29T14:41:31.567Z,101087.97
2022-07-29T14:44:01.637Z,101081.88
2022-07-29T14:46:29.139Z,101075.00
2022-07-29T14:48:56.322Z,101074.94
2022-07-29T14:51:23.337Z,101075.41
2022-07-29T14:53:50.514Z,101089.06
2022-07-29T14:56:35.970Z,101074.41
2022-07-29T14:59:04.760Z,101079.84
2022-07-29T15:01:31.799Z,101076.16
2022-07-29T15:03:59.890Z,101085.09
2022-07-29T15:06:27.800Z,101073.53
2022-07-29T15:08:55.073Z,101086.78
2022-07-29T15:11:21.956Z,101092.03
2022-07-29T15:13:49.295Z,101079.63
2022-07-29T15:16:16.413Z,101087.91
2022-07-29T15:19:08.160Z,101089.88
2022-07-29T15:21:35.553Z,101091.34
2022-07-29T15:24:09.045Z,101087.72
2022-07-29T15:26:36.114Z,101088.72
2022-07-29T15:29:03.787Z,101094.88
2022-07-29T15:31:30.895Z,101083.84
2022-07-29T15:34:05.115Z,101066.53
2022-07-29T15:36:51.604Z,101086.25
2022-07-29T15:39:21.851Z,101086.94
2022-07-29T15:41:51.183Z,101080.53
2022-07-29T15:44:19.673Z,101074.38
2022-07-29T15:47:09.618Z,101084.91
2022-07-29T15:49:48.091Z,101075.50
2022-07-29T15:55:11.885Z,101072.53
2022-07-29T15:57:41.046Z,101067.06
2022-07-29T16:00:09.072Z,101084.69
2022-07-29T16:02:36.127Z,101074.81
2022-07-29T16:05:03.446Z,101073.75
2022-07-29T16:07:31.266Z,101065.88
2022-07-29T16:09:59.051Z,101059.66
2022-07-29T16:12:26.339Z,101060.50
2022-07-29T16:14:53.455Z,101067.38
2022-07-29T16:17:20.674Z,101075.03
2022-07-29T16:19:48.433Z,101058.72
2022-07-29T16:22:15.779Z,101062.38
2022-07-29T16:25:09.183Z,101057.25
2022-07-29T16:27:37.750Z,101058.47
2022-07-29T16:30:09.780Z,101052.97
2022-07-29T16:32:37.291Z,101045.78
2022-07-29T16:35:05.554Z,101049.34
2022-07-29T16:37:36.581Z,101049.72
2022-07-29T16:40:06.478Z,101040.16
2022-07-29T16:42:46.597Z,101051.22
2022-07-29T16:45:15.910Z,101043.59
2022-07-29T16:47:43.396Z,101044.69
2022-07-29T16:50:10.531Z,101030.69
2022-07-29T16:52:38.517Z,101041.72
2022-07-29T16:55:06.573Z,101038.84
2022-07-29T16:57:33.567Z,101038.72
2022-07-29T17:00:00.552Z,101038.56
2022-07-29T17:02:27.798Z,101031.56
2022-07-29T17:04:55.396Z,101042.78
2022-07-29T17:07:22.614Z,101040.81
2022-07-29T17:09:53.826Z,101050.06
2022-07-29T17:12:22.471Z,101049.34
2022-07-29T17:14:49.379Z,101047.84
2022-07-29T17:20:09.949Z,101051.69
2022-07-29T17:22:38.140Z,101055.25
2022-07-29T17:25:05.861Z,101051.56
2022-07-29T17:27:33.459Z,101068.56
2022-07-29T17:30:00.971Z,101059.50
2022-07-29T17:32:28.564Z,101055.16
2022-07-29T17:35:44.201Z,101053.72
2022-07-29T17:38:19.177Z,101059.56
2022-07-29T17:41:14.760Z,101053.44
2022-07-29T17:43:52.121Z,101054.81
2022-07-29T17:46:26.488Z,101065.16
2022-07-29T17:49:01.261Z,101065.91
2022-07-29T17:51:29.528Z,101074.25
2022-07-29T17:54:01.049Z,101064.97
2022-07-29T17:56:32.234Z,101079.00
2022-07-29T17:59:10.656Z,101056.03
2022-07-29T18:01:46.803Z,101066.41
2022-07-29T18:04:23.037Z,101084.34
2022-07-29T18:06:53.019Z,101080.22
2022-07-29T18:12:11.822Z,101073.28
2022-07-29T18:14:40.802Z,101072.59
2022-07-29T18:17:12.313Z,101091.63
2022-07-29T18:19:45.573Z,101088.88
2022-07-29T18:22:17.045Z,101087.34
2022-07-29T18:24:48.303Z,101090.09
2022-07-29T18:27:19.775Z,101097.44
2022-07-29T18:29:50.988Z,101093.84
2022-07-29T18:32:18.750Z,101098.03
2022-07-29T18:34:55.618Z,101109.13
2022-07-29T18:38:01.916Z,101106.47
2022-07-29T18:40:11.284Z,101113.19
2022-07-29T18:42:40.703Z,101120.38
2022-07-29T18:45:14.767Z,101108.19
2022-07-29T18:47:49.042Z,101109.22
2022-07-29T18:50:17.162Z,101108.16
2022-07-29T18:52:46.529Z,101107.78
2022-07-29T18:55:13.911Z,101116.53
2022-07-29T18:57:55.430Z,101122.25
2022-07-29T19:00:25.861Z,101117.47
2022-07-29T19:02:53.298Z,101106.38
2022-07-29T19:05:21.365Z,101117.09
2022-07-29T19:07:48.853Z,101120.69
2022-07-29T19:10:15.984Z,101124.09
2022-07-29T19:12:43.143Z,101125.75
2022-07-29T19:15:10.985Z,101134.50
2022-07-29T19:17:43.234Z,101129.38
2022-07-29T19:20:11.101Z,101131.81
2022-07-29T19:22:38.794Z,101139.41
2022-07-29T19:25:06.908Z,101141.72
2022-07-29T19:27:34.141Z,101154.00
2022-07-29T19:30:03.351Z,101153.69
2022-07-29T19:32:30.958Z,101160.31
2022-07-29T19:35:16.861Z,101157.91
2022-07-29T19:37:43.882Z,101143.06
2022-07-29T19:40:12.160Z,101145.00
2022-07-29T19:42:39.973Z,101146.09
2022-07-29T19:45:11.777Z,101130.16
2022-07-29T19:47:39.317Z,101148.38
2022-07-29T19:50:07.078Z,101150.78
2022-07-29T19:52:34.270Z,101154.81
2022-07-29T19:55:07.083Z,101157.72
2022-07-29T19:57:40.859Z,101166.91
2022-07-29T20:00:11.310Z,101163.03
2022-07-29T20:02:40.426Z,101167.88
2022-07-29T20:05:09.382Z,101162.88
2022-07-29T20:07:38.034Z,101159.75
2022-07-29T20:10:06.779Z,101157.47
2022-07-29T20:12:34.191Z,101153.09
2022-07-29T20:15:01.222Z,101157.09
2022-07-29T20:17:28.905Z,101160.81
2022-07-29T20:19:56.910Z,101171.09
2022-07-29T20:22:24.292Z,101163.03
2022-07-29T20:24:51.281Z,101163.19
2022-07-29T20:27:18.859Z,101161.22
2022-07-29T20:29:45.988Z,101162.47
2022-07-29T20:32:13.085Z,101157.75
2022-07-29T20:34:43.352Z,101166.28
2022-07-29T20:37:11.444Z,101174.31
2022-07-29T20:39:38.378Z,101168.97
2022-07-29T20:42:06.905Z,101178.94
2022-07-29T20:44:33.950Z,101170.88
2022-07-29T20:47:03.370Z,101163.22
2022-07-29T20:49:30.843Z,101174.63
2022-07-29T20:51:58.204Z,101175.09
2022-07-29T20:54:25.581Z,101175.03
2022-07-29T20:56:53.104Z,101187.75
2022-07-29T20:59:20.211Z,101194.66
2022-07-29T21:01:47.553Z,101185.16
2022-07-29T21:04:14.865Z,101184.78
2022-07-29T21:06:41.839Z,101188.34
2022-07-29T21:09:08.731Z,101186.22
2022-07-29T21:11:44.758Z,101178.16
2022-07-29T21:14:29.296Z,101193.03
2022-07-29T21:16:56.813Z,101186.88
2022-07-29T21:19:23.977Z,101186.25
2022-07-29T21:21:51.064Z,101182.03
2022-07-29T21:24:19.320Z,101189.13
2022-07-29T21:26:54.476Z,101183.16
2022-07-29T21:29:31.845Z,101199.56
2022-07-29T21:31:58.767Z,101193.91
2022-07-29T21:34:27.937Z,101195.81
2022-07-29T21:36:55.141Z,101199.19
2022-07-29T21:39:22.141Z,101200.28
2022-07-29T21:41:49.235Z,101199.09
2022-07-29T21:44:16.375Z,101193.97
2022-07-29T21:46:43.360Z,101196.19
2022-07-29T21:49:10.740Z,101197.31
2022-07-29T21:51:37.740Z,101201.28
2022-07-29T21:54:04.779Z,101188.72
2022-07-29T21:56:33.591Z,101196.44
2022-07-29T21:59:00.744Z,101193.81
2022-07-29T22:01:28.374Z,101184.91
2022-07-29T22:04:06.305Z,101186.00
2022-07-29T22:06:34.521Z,101185.31
2022-07-29T22:09:01.789Z,101181.59
2022-07-29T22:11:28.954Z,101195.25
2022-07-29T22:13:56.003Z,101192.28
2022-07-29T22:16:23.040Z,101195.13
2022-07-29T22:18:50.110Z,101193.81
2022-07-29T22:21:17.462Z,101201.00
2022-07-29T22:23:44.430Z,101192.31
2022-07-29T22:26:11.378Z,101185.34
2022-07-29T22:28:38.287Z,101184.53
2022-07-29T22:31:07.961Z,101182.41
2022-07-29T22:33:35.076Z,101183.34
2022-07-29T22:36:01.960Z,101179.28
2022-07-29T22:38:28.810Z,101186.16
2022-07-29T22:41:00.598Z,101181.63
2022-07-29T22:43:28.510Z,101179.63
2022-07-29T22:45:55.731Z,101176.06
2022-07-29T22:48:22.656Z,101187.00
2022-07-29T22:50:49.734Z,101174.06
2022-07-29T22:53:16.828Z,101169.50
2022-07-29T22:55:45.939Z,101161.94
2022-07-29T22:58:13.041Z,101162.03
2022-07-29T23:00:41.174Z,101156.63
2022-07-29T23:03:08.703Z,101155.31
2022-07-29T23:05:35.618Z,101163.50
2022-07-29T23:08:02.784Z,101160.34
2022-07-29T23:10:29.845Z,101160.97
2022-07-29T23:12:56.785Z,101156.13
2022-07-29T23:15:24.962Z,101152.88
2022-07-29T23:17:51.829Z,101159.44
2022-07-29T23:20:19.088Z,101146.50
2022-07-29T23:22:46.100Z,101153.06
2022-07-29T23:25:13.033Z,101165.09
2022-07-29T23:27:40.600Z,101152.88
2022-07-29T23:30:08.412Z,101155.69
2022-07-29T23:32:35.511Z,101155.47
2022-07-29T23:35:02.593Z,101159.91
2022-07-29T23:37:29.615Z,101153.44
2022-07-29T23:39:58.401Z,101147.78
2022-07-29T23:42:25.578Z,101152.44
2022-07-29T23:44:52.595Z,101154.66
2022-07-29T23:47:19.701Z,101150.91
2022-07-29T23:49:49.796Z,101142.81
2022-07-29T23:52:17.902Z,101147.75
2022-07-29T23:54:44.820Z,101152.47
2022-07-29T23:57:11.925Z,101151.94
2022-07-29T23:59:38.961Z,101158.00
